createdAt,value
2022-12-09T00:00:08.167Z,944.7000
2022-12-09T00:00:19.711Z,944.7000
2022-12-09T00:00:31.066Z,944.7000
2022-12-09T00:00:42.223Z,944.6800
2022-12-09T00:00:53.320Z,944.6800
2022-12-09T00:01:04.964Z,944.6800
2022-12-09T00:01:16.390Z,944.6600
2022-12-09T00:01:27.461Z,944.6400
2022-12-09T00:01:38.690Z,944.6200
2022-12-09T00:01:49.841Z,944.6200
2022-12-09T00:02:01.139Z,944.6200
2022-12-09T00:02:12.444Z,944.6000
2022-12-09T00:02:23.779Z,944.6200
2022-12-09T00:02:35.561Z,944.6200
2022-12-09T00:02:47.133Z,944.6000
2022-12-09T00:02:58.408Z,944.6200
2022-12-09T00:03:09.964Z,944.6000
2022-12-09T00:03:23.853Z,944.6000
2022-12-09T00:03:35.579Z,944.6200
2022-12-09T00:03:47.218Z,944.6200
2022-12-09T00:03:58.982Z,944.6000
2022-12-09T00:04:10.615Z,944.6000
2022-12-09T00:04:22.211Z,944.6000
2022-12-09T00:04:33.821Z,944.5800
2022-12-09T00:04:45.302Z,944.5800
2022-12-09T00:04:57.182Z,944.6000
2022-12-09T00:05:08.621Z,944.6200
2022-12-09T00:05:20.133Z,944.6200
2022-12-09T00:05:31.450Z,944.6200
2022-12-09T00:05:42.776Z,944.6200
2022-12-09T00:05:53.927Z,944.6200
2022-12-09T00:06:05.147Z,944.6200
2022-12-09T00:06:16.472Z,944.6400
2022-12-09T00:06:27.704Z,944.6200
2022-12-09T00:06:38.854Z,944.6200
2022-12-09T00:06:50.145Z,944.6200
2022-12-09T00:07:01.327Z,944.6200
2022-12-09T00:07:12.382Z,944.6200
2022-12-09T00:07:23.563Z,944.6200
2022-12-09T00:07:34.755Z,944.6000
2022-12-09T00:07:46.018Z,944.6000
2022-12-09T00:07:57.306Z,944.6000
2022-12-09T00:08:08.685Z,944.6000
2022-12-09T00:08:20.003Z,944.5800
2022-12-09T00:08:31.193Z,944.5800
2022-12-09T00:08:42.508Z,944.5800
2022-12-09T00:08:53.722Z,944.5600
2022-12-09T00:09:04.928Z,944.5600
2022-12-09T00:09:16.160Z,944.5600
2022-12-09T00:09:27.455Z,944.5600
2022-12-09T00:09:38.742Z,944.5600
2022-12-09T00:09:49.830Z,944.5600
2022-12-09T00:10:01.067Z,944.5600
2022-12-09T00:10:12.369Z,944.5600
2022-12-09T00:10:23.765Z,944.6000
2022-12-09T00:10:35.147Z,944.5800
2022-12-09T00:10:46.197Z,944.5800
2022-12-09T00:10:57.516Z,944.6000
2022-12-09T00:11:08.729Z,944.6000
2022-12-09T00:11:19.800Z,944.6200
2022-12-09T00:11:30.854Z,944.6200
2022-12-09T00:11:41.925Z,944.6200
2022-12-09T00:11:53.072Z,944.6000
2022-12-09T00:12:04.855Z,944.6200
2022-12-09T00:12:16.078Z,944.6200
2022-12-09T00:12:27.170Z,944.6200
2022-12-09T00:12:38.424Z,944.6200
2022-12-09T00:12:49.655Z,944.6400
2022-12-09T00:13:00.922Z,944.6400
2022-12-09T00:13:12.258Z,944.6400
2022-12-09T00:13:23.330Z,944.6200
2022-12-09T00:13:34.572Z,944.6200
2022-12-09T00:13:45.884Z,944.6200
2022-12-09T00:13:56.935Z,944.6400
2022-12-09T00:14:08.237Z,944.6200
2022-12-09T00:14:19.299Z,944.6400
2022-12-09T00:14:30.496Z,944.6400
2022-12-09T00:14:41.614Z,944.6400
2022-12-09T00:14:52.861Z,944.6200
2022-12-09T00:15:03.988Z,944.6400
2022-12-09T00:15:15.026Z,944.6400
2022-12-09T00:15:26.299Z,944.6200
2022-12-09T00:15:37.446Z,944.6400
2022-12-09T00:15:48.794Z,944.6400
2022-12-09T00:16:00.007Z,944.6200
2022-12-09T00:16:11.388Z,944.6400
2022-12-09T00:16:22.599Z,944.6200
2022-12-09T00:16:33.875Z,944.6200
2022-12-09T00:16:44.985Z,944.6400
2022-12-09T00:16:56.153Z,944.6400
2022-12-09T00:17:07.680Z,944.6200
2022-12-09T00:17:19.023Z,944.6200
2022-12-09T00:17:30.472Z,944.6400
2022-12-09T00:17:41.799Z,944.6200
2022-12-09T00:17:52.843Z,944.6400
2022-12-09T00:18:03.899Z,944.6400
2022-12-09T00:18:14.974Z,944.6400
2022-12-09T00:18:26.088Z,944.6400
2022-12-09T00:18:37.214Z,944.6400
2022-12-09T00:18:48.425Z,944.6600
2022-12-09T00:18:59.663Z,944.6600
2022-12-09T00:19:11.058Z,944.6400
2022-12-09T00:19:22.276Z,944.6600
2022-12-09T00:19:33.398Z,944.6400
2022-12-09T00:19:44.432Z,944.6400
2022-12-09T00:19:55.625Z,944.6600
2022-12-09T00:20:07.311Z,944.6400
2022-12-09T00:20:18.914Z,944.6600
2022-12-09T00:20:30.249Z,944.6600
2022-12-09T00:20:41.544Z,944.6600
2022-12-09T00:20:52.599Z,944.6600
2022-12-09T00:21:03.648Z,944.6600
2022-12-09T00:21:14.751Z,944.6600
2022-12-09T00:21:25.912Z,944.6600
2022-12-09T00:21:37.224Z,944.7000
2022-12-09T00:21:48.774Z,944.6800
2022-12-09T00:22:00.001Z,944.7000
2022-12-09T00:22:11.388Z,944.6600
2022-12-09T00:22:22.491Z,944.6600
2022-12-09T00:22:33.573Z,944.6800
2022-12-09T00:22:44.637Z,944.6800
2022-12-09T00:22:55.693Z,944.6800
2022-12-09T00:23:07.075Z,944.6800
2022-12-09T00:23:18.254Z,944.7000
2022-12-09T00:23:29.318Z,944.6600
2022-12-09T00:23:40.345Z,944.6400
2022-12-09T00:23:51.421Z,944.6400
2022-12-09T00:24:02.517Z,944.6400
2022-12-09T00:24:13.791Z,944.6400
2022-12-09T00:24:24.824Z,944.6400
2022-12-09T00:24:35.895Z,944.6400
2022-12-09T00:24:47.352Z,944.6400
2022-12-09T00:24:58.483Z,944.6400
2022-12-09T00:25:09.740Z,944.6400
2022-12-09T00:25:20.777Z,944.6400
2022-12-09T00:25:31.903Z,944.6400
2022-12-09T00:25:42.980Z,944.6400
2022-12-09T00:25:54.126Z,944.6400
2022-12-09T00:26:05.493Z,944.6400
2022-12-09T00:26:16.765Z,944.6600
2022-12-09T00:26:28.071Z,944.6600
2022-12-09T00:26:39.117Z,944.6400
2022-12-09T00:26:50.174Z,944.6400
2022-12-09T00:27:01.404Z,944.6400
2022-12-09T00:27:12.498Z,944.6400
2022-12-09T00:27:23.632Z,944.6400
2022-12-09T00:27:34.655Z,944.6400
2022-12-09T00:27:45.806Z,944.6400
2022-12-09T00:27:56.843Z,944.6400
2022-12-09T00:28:07.911Z,944.6400
2022-12-09T00:28:19.057Z,944.6400
2022-12-09T00:28:30.187Z,944.6600
2022-12-09T00:28:41.533Z,944.6600
2022-12-09T00:28:52.864Z,944.6600
2022-12-09T00:29:04.228Z,944.6600
2022-12-09T00:29:15.343Z,944.6600
2022-12-09T00:29:26.627Z,944.6600
2022-12-09T00:29:37.736Z,944.6800
2022-12-09T00:29:49.075Z,944.6800
2022-12-09T00:30:00.207Z,944.6800
2022-12-09T00:30:11.916Z,944.6600
2022-12-09T00:30:23.527Z,944.6600
2022-12-09T00:30:34.798Z,944.6600
2022-12-09T00:30:46.004Z,944.6600
2022-12-09T00:30:57.213Z,944.6800
2022-12-09T00:31:08.422Z,944.6800
2022-12-09T00:31:19.645Z,944.7000
2022-12-09T00:31:31.507Z,944.7000
2022-12-09T00:31:42.834Z,944.6600
2022-12-09T00:31:54.099Z,944.6800
2022-12-09T00:32:05.716Z,944.7000
2022-12-09T00:32:17.048Z,944.7000
2022-12-09T00:32:28.462Z,944.7000
2022-12-09T00:32:39.935Z,944.7000
2022-12-09T00:32:51.284Z,944.7000
2022-12-09T00:33:02.732Z,944.7000
2022-12-09T00:33:14.063Z,944.6800
2022-12-09T00:33:25.159Z,944.6800
2022-12-09T00:33:36.215Z,944.6600
2022-12-09T00:33:47.269Z,944.6400
2022-12-09T00:33:58.416Z,944.6400
2022-12-09T00:34:09.538Z,944.6400
2022-12-09T00:34:20.646Z,944.6400
2022-12-09T00:34:32.037Z,944.6400
2022-12-09T00:34:43.109Z,944.6400
2022-12-09T00:34:54.493Z,944.6200
2022-12-09T00:35:06.015Z,944.6200
2022-12-09T00:35:17.062Z,944.6400
2022-12-09T00:35:28.172Z,944.6200
2022-12-09T00:35:39.378Z,944.6200
2022-12-09T00:35:50.572Z,944.6200
2022-12-09T00:36:01.684Z,944.6200
2022-12-09T00:36:13.123Z,944.6200
2022-12-09T00:36:24.270Z,944.6200
2022-12-09T00:36:35.429Z,944.6200
2022-12-09T00:36:46.564Z,944.6000
2022-12-09T00:36:57.908Z,944.6200
2022-12-09T00:37:09.146Z,944.6200
2022-12-09T00:37:20.275Z,944.6200
2022-12-09T00:37:31.363Z,944.6200
2022-12-09T00:37:42.682Z,944.6200
2022-12-09T00:37:54.014Z,944.6200
2022-12-09T00:38:05.472Z,944.6200
2022-12-09T00:38:16.573Z,944.5800
2022-12-09T00:38:27.639Z,944.6200
2022-12-09T00:38:39.228Z,944.6000
2022-12-09T00:38:50.639Z,944.6000
2022-12-09T00:39:02.020Z,944.6000
2022-12-09T00:39:13.288Z,944.6000
2022-12-09T00:39:24.471Z,944.6000
2022-12-09T00:39:35.790Z,944.6000
2022-12-09T00:39:47.320Z,944.6000
2022-12-09T00:39:58.595Z,944.5600
2022-12-09T00:40:10.066Z,944.5800
2022-12-09T00:40:21.738Z,944.5600
2022-12-09T00:40:32.893Z,944.5600
2022-12-09T00:40:44.009Z,944.5600
2022-12-09T00:40:55.204Z,944.5600
2022-12-09T00:41:06.408Z,944.5600
2022-12-09T00:41:17.584Z,944.5600
2022-12-09T00:41:28.873Z,944.5600
2022-12-09T00:41:40.016Z,944.5600
2022-12-09T00:41:51.239Z,944.5400
2022-12-09T00:42:02.747Z,944.5400
2022-12-09T00:42:14.024Z,944.5400
2022-12-09T00:42:25.285Z,944.5200
2022-12-09T00:42:36.325Z,944.5200
2022-12-09T00:42:47.742Z,944.5400
2022-12-09T00:42:58.838Z,944.5400
2022-12-09T00:43:09.903Z,944.5200
2022-12-09T00:43:21.266Z,944.5200
2022-12-09T00:43:32.324Z,944.5200
2022-12-09T00:43:43.772Z,944.5400
2022-12-09T00:43:55.109Z,944.5000
2022-12-09T00:44:06.572Z,944.5000
2022-12-09T00:44:17.941Z,944.5200
2022-12-09T00:44:29.135Z,944.5200
2022-12-09T00:44:40.189Z,944.5200
2022-12-09T00:44:51.366Z,944.5400
2022-12-09T00:45:02.522Z,944.5400
2022-12-09T00:45:13.556Z,944.5400
2022-12-09T00:45:24.662Z,944.5400
2022-12-09T00:45:35.833Z,944.5200
2022-12-09T00:45:46.990Z,944.5200
2022-12-09T00:45:58.324Z,944.5400
2022-12-09T00:46:09.627Z,944.5600
2022-12-09T00:46:20.870Z,944.5800
2022-12-09T00:46:32.388Z,944.5400
2022-12-09T00:46:44.061Z,944.5600
2022-12-09T00:46:55.485Z,944.5600
2022-12-09T00:47:06.770Z,944.5800
2022-12-09T00:47:18.127Z,944.5600
2022-12-09T00:47:29.722Z,944.5600
2022-12-09T00:47:41.024Z,944.5800
2022-12-09T00:47:52.395Z,944.5600
2022-12-09T00:48:03.660Z,944.5600
2022-12-09T00:48:14.860Z,944.5600
2022-12-09T00:48:26.217Z,944.5600
2022-12-09T00:48:37.304Z,944.5600
2022-12-09T00:48:48.600Z,944.5800
2022-12-09T00:48:59.691Z,944.5600
2022-12-09T00:49:11.002Z,944.5600
2022-12-09T00:49:22.243Z,944.5400
2022-12-09T00:49:33.300Z,944.5600
2022-12-09T00:49:44.420Z,944.5400
2022-12-09T00:49:55.816Z,944.5400
2022-12-09T00:50:07.474Z,944.5400
2022-12-09T00:50:18.767Z,944.5400
2022-12-09T00:50:30.035Z,944.5400
2022-12-09T00:50:41.241Z,944.5400
2022-12-09T00:50:52.419Z,944.5400
2022-12-09T00:51:03.450Z,944.5400
2022-12-09T00:51:14.536Z,944.5400
2022-12-09T00:51:25.714Z,944.5400
2022-12-09T00:51:36.920Z,944.5200
2022-12-09T00:51:48.007Z,944.5200
2022-12-09T00:51:59.204Z,944.5200
2022-12-09T00:52:10.414Z,944.5200
2022-12-09T00:52:21.471Z,944.5200
2022-12-09T00:52:32.665Z,944.5200
2022-12-09T00:52:43.869Z,944.5000
2022-12-09T00:52:54.900Z,944.5000
2022-12-09T00:53:05.943Z,944.5200
2022-12-09T00:53:17.043Z,944.5000
2022-12-09T00:53:28.145Z,944.5000
2022-12-09T00:53:39.189Z,944.4800
2022-12-09T00:53:50.445Z,944.4800
2022-12-09T00:54:01.617Z,944.5000
2022-12-09T00:54:13.000Z,944.5000
2022-12-09T00:54:24.647Z,944.5000
2022-12-09T00:54:36.086Z,944.5000
2022-12-09T00:54:47.901Z,944.4800
2022-12-09T00:54:59.070Z,944.4700
2022-12-09T00:55:10.311Z,944.4500
2022-12-09T00:55:21.823Z,944.4700
2022-12-09T00:55:33.248Z,944.4700
2022-12-09T00:55:44.616Z,944.4500
2022-12-09T00:55:55.949Z,944.4500
2022-12-09T00:56:07.151Z,944.4500
2022-12-09T00:56:18.330Z,944.4500
2022-12-09T00:56:29.391Z,944.4500
2022-12-09T00:56:40.454Z,944.4500
2022-12-09T00:56:51.623Z,944.4300
2022-12-09T00:57:02.893Z,944.4100
2022-12-09T00:57:14.124Z,944.4500
2022-12-09T00:57:25.284Z,944.4300
2022-12-09T00:57:36.474Z,944.4300
2022-12-09T00:57:47.822Z,944.4300
2022-12-09T00:57:58.856Z,944.4100
2022-12-09T00:58:09.933Z,944.3900
2022-12-09T00:58:21.014Z,944.4100
2022-12-09T00:58:32.097Z,944.4100
2022-12-09T00:58:43.140Z,944.3900
2022-12-09T00:58:54.461Z,944.3900
2022-12-09T00:59:05.862Z,944.3700
2022-12-09T00:59:17.005Z,944.3700
2022-12-09T00:59:28.111Z,944.3700
2022-12-09T00:59:39.511Z,944.3500
2022-12-09T00:59:50.882Z,944.3300
2022-12-09T01:00:02.094Z,944.3500
2022-12-09T01:00:13.357Z,944.3700
2022-12-09T01:00:24.514Z,944.3700
2022-12-09T01:00:35.831Z,944.3700
2022-12-09T01:00:46.934Z,944.3300
2022-12-09T01:00:58.024Z,944.3300
2022-12-09T01:01:09.669Z,944.3300
2022-12-09T01:01:21.217Z,944.3300
2022-12-09T01:01:32.981Z,944.3300
2022-12-09T01:01:44.161Z,944.3500
2022-12-09T01:01:55.586Z,944.3500
2022-12-09T01:02:06.937Z,944.3300
2022-12-09T01:02:18.138Z,944.3300
2022-12-09T01:02:29.445Z,944.3300
2022-12-09T01:02:40.947Z,944.3300
2022-12-09T01:02:52.486Z,944.3300
2022-12-09T01:03:04.024Z,944.3100
2022-12-09T01:03:16.168Z,944.3100
2022-12-09T01:03:27.714Z,944.3100
2022-12-09T01:03:39.337Z,944.3100
2022-12-09T01:03:50.992Z,944.3100
2022-12-09T01:04:02.838Z,944.3100
2022-12-09T01:04:14.319Z,944.2900
2022-12-09T01:04:25.697Z,944.2900
2022-12-09T01:04:37.368Z,944.2900
2022-12-09T01:04:49.014Z,944.2900
2022-12-09T01:05:00.425Z,944.2900
2022-12-09T01:05:12.042Z,944.2900
2022-12-09T01:05:23.565Z,944.2900
2022-12-09T01:05:34.616Z,944.2900
2022-12-09T01:05:45.882Z,944.2700
2022-12-09T01:05:56.930Z,944.2700
2022-12-09T01:06:08.292Z,944.2700
2022-12-09T01:06:19.632Z,944.2700
2022-12-09T01:06:31.002Z,944.2900
2022-12-09T01:06:42.138Z,944.2700
2022-12-09T01:06:53.351Z,944.2700
2022-12-09T01:07:04.435Z,944.2500
2022-12-09T01:07:15.651Z,944.2500
2022-12-09T01:07:26.874Z,944.2500
2022-12-09T01:07:38.181Z,944.2500
2022-12-09T01:07:49.482Z,944.2500
2022-12-09T01:08:00.596Z,944.2500
2022-12-09T01:08:11.843Z,944.2500
2022-12-09T01:08:23.194Z,944.2300
2022-12-09T01:08:38.349Z,944.2300
2022-12-09T01:08:51.465Z,944.2500
2022-12-09T01:09:03.136Z,944.2300
2022-12-09T01:09:14.739Z,944.2100
2022-12-09T01:09:25.986Z,944.1900
2022-12-09T01:09:37.186Z,944.2300
2022-12-09T01:09:48.364Z,944.2100
2022-12-09T01:09:59.464Z,944.2100
2022-12-09T01:10:10.842Z,944.2100
2022-12-09T01:10:22.809Z,944.2100
2022-12-09T01:10:34.021Z,944.2100
2022-12-09T01:10:45.294Z,944.2100
2022-12-09T01:10:56.494Z,944.2100
2022-12-09T01:11:07.643Z,944.2100
2022-12-09T01:11:18.812Z,944.1900
2022-12-09T01:11:29.964Z,944.2100
2022-12-09T01:11:41.177Z,944.1900
2022-12-09T01:11:52.305Z,944.1900
2022-12-09T01:12:03.494Z,944.1900
2022-12-09T01:12:14.705Z,944.2100
2022-12-09T01:12:26.155Z,944.1900
2022-12-09T01:12:37.589Z,944.1900
2022-12-09T01:12:48.882Z,944.1900
2022-12-09T01:13:00.276Z,944.1900
2022-12-09T01:13:11.537Z,944.1900
2022-12-09T01:13:22.836Z,944.1700
2022-12-09T01:13:34.087Z,944.1900
2022-12-09T01:13:45.213Z,944.1700
2022-12-09T01:13:56.563Z,944.1700
2022-12-09T01:14:07.888Z,944.1700
2022-12-09T01:14:18.955Z,944.1700
2022-12-09T01:14:30.146Z,944.1500
2022-12-09T01:14:41.279Z,944.1500
2022-12-09T01:14:52.508Z,944.1300
2022-12-09T01:15:03.679Z,944.1300
2022-12-09T01:15:14.940Z,944.1100
2022-12-09T01:15:26.164Z,944.1100
2022-12-09T01:15:37.393Z,944.1300
2022-12-09T01:15:48.698Z,944.1100
2022-12-09T01:16:00.054Z,944.1100
2022-12-09T01:16:11.228Z,944.1100
2022-12-09T01:16:22.529Z,944.0900
2022-12-09T01:16:33.813Z,944.0900
2022-12-09T01:16:45.031Z,944.0900
2022-12-09T01:16:56.484Z,944.0900
2022-12-09T01:17:07.677Z,944.0900
2022-12-09T01:17:18.903Z,944.0900
2022-12-09T01:17:30.447Z,944.0900
2022-12-09T01:17:41.675Z,944.0900
2022-12-09T01:17:53.195Z,944.0700
2022-12-09T01:18:04.589Z,944.0700
2022-12-09T01:18:15.822Z,944.0300
2022-12-09T01:18:26.912Z,944.0500
2022-12-09T01:18:38.019Z,944.0700
2022-12-09T01:18:49.263Z,944.0500
2022-12-09T01:19:00.459Z,944.0700
2022-12-09T01:19:11.814Z,944.0900
2022-12-09T01:19:23.030Z,944.0700
2022-12-09T01:19:34.416Z,944.0700
2022-12-09T01:19:45.725Z,944.0700
2022-12-09T01:19:56.824Z,944.0700
2022-12-09T01:20:08.187Z,944.0700
2022-12-09T01:20:19.806Z,944.0900
2022-12-09T01:20:31.032Z,944.0700
2022-12-09T01:20:42.211Z,944.0900
2022-12-09T01:20:53.238Z,944.0700
2022-12-09T01:21:04.352Z,944.0700
2022-12-09T01:21:15.467Z,944.0700
2022-12-09T01:21:26.844Z,944.0700
2022-12-09T01:21:37.916Z,944.0900
2022-12-09T01:21:49.078Z,944.0900
2022-12-09T01:22:00.573Z,944.0900
2022-12-09T01:22:12.154Z,944.0900
2022-12-09T01:22:23.297Z,944.1100
2022-12-09T01:22:34.715Z,944.1100
2022-12-09T01:22:46.037Z,944.1300
2022-12-09T01:22:57.185Z,944.1100
2022-12-09T01:23:08.546Z,944.1300
2022-12-09T01:23:20.070Z,944.1300
2022-12-09T01:23:31.453Z,944.1300
2022-12-09T01:23:42.688Z,944.1500
2022-12-09T01:23:53.748Z,944.1300
2022-12-09T01:24:04.895Z,944.1300
2022-12-09T01:24:16.118Z,944.1300
2022-12-09T01:24:27.344Z,944.1300
2022-12-09T01:24:38.552Z,944.1500
2022-12-09T01:24:49.808Z,944.1300
2022-12-09T01:25:00.948Z,944.1300
2022-12-09T01:25:12.384Z,944.1300
2022-12-09T01:25:23.695Z,944.1300
2022-12-09T01:25:34.935Z,944.1300
2022-12-09T01:25:45.988Z,944.1100
2022-12-09T01:25:57.531Z,944.1300
2022-12-09T01:26:08.739Z,944.1300
2022-12-09T01:26:19.971Z,944.1300
2022-12-09T01:26:31.181Z,944.1300
2022-12-09T01:26:42.355Z,944.1300
2022-12-09T01:26:53.571Z,944.1300
2022-12-09T01:27:04.618Z,944.1300
2022-12-09T01:27:15.720Z,944.1300
2022-12-09T01:27:26.751Z,944.1300
2022-12-09T01:27:38.095Z,944.1300
2022-12-09T01:27:49.259Z,944.1300
2022-12-09T01:28:00.556Z,944.1300
2022-12-09T01:28:11.990Z,944.1300
2022-12-09T01:28:23.169Z,944.1500
2022-12-09T01:28:34.343Z,944.1300
2022-12-09T01:28:45.521Z,944.1300
2022-12-09T01:28:56.564Z,944.1300
2022-12-09T01:29:07.955Z,944.1300
2022-12-09T01:29:19.181Z,944.1100
2022-12-09T01:29:30.443Z,944.1300
2022-12-09T01:29:41.485Z,944.1100
2022-12-09T01:29:52.657Z,944.1300
2022-12-09T01:30:04.173Z,944.1100
2022-12-09T01:30:15.959Z,944.1300
2022-12-09T01:30:27.307Z,944.1100
2022-12-09T01:30:38.643Z,944.1100
2022-12-09T01:30:50.038Z,944.1100
2022-12-09T01:31:01.241Z,944.1300
2022-12-09T01:31:12.377Z,944.1100
2022-12-09T01:31:23.540Z,944.1100
2022-12-09T01:31:35.093Z,944.1100
2022-12-09T01:31:46.262Z,944.0900
2022-12-09T01:31:57.464Z,944.1100
2022-12-09T01:32:08.976Z,944.1100
2022-12-09T01:32:20.454Z,944.1100
2022-12-09T01:32:31.847Z,944.0900
2022-12-09T01:32:43.033Z,944.0900
2022-12-09T01:32:54.496Z,944.1100
2022-12-09T01:33:05.666Z,944.1100
2022-12-09T01:33:16.824Z,944.0900
2022-12-09T01:33:28.209Z,944.0900
2022-12-09T01:33:39.269Z,944.0900
2022-12-09T01:33:50.565Z,944.0900
2022-12-09T01:34:02.155Z,944.0900
2022-12-09T01:34:13.402Z,944.0900
2022-12-09T01:34:24.659Z,944.0900
2022-12-09T01:34:35.800Z,944.0700
2022-12-09T01:34:47.113Z,944.0700
2022-12-09T01:34:58.414Z,944.0700
2022-12-09T01:35:09.843Z,944.0300
2022-12-09T01:35:21.249Z,944.0300
2022-12-09T01:35:32.475Z,944.0300
2022-12-09T01:35:43.550Z,944.0300
2022-12-09T01:35:54.768Z,944.0500
2022-12-09T01:36:06.001Z,944.0300
2022-12-09T01:36:17.445Z,944.0500
2022-12-09T01:36:28.668Z,944.0500
2022-12-09T01:36:40.284Z,944.0000
2022-12-09T01:36:51.391Z,944.0000
2022-12-09T01:37:02.435Z,944.0100
2022-12-09T01:37:13.725Z,944.0100
2022-12-09T01:37:24.917Z,944.0100
2022-12-09T01:37:36.129Z,944.0000
2022-12-09T01:37:47.480Z,944.0000
2022-12-09T01:37:58.659Z,944.0000
2022-12-09T01:38:10.114Z,944.0100
2022-12-09T01:38:21.475Z,944.0000
2022-12-09T01:38:32.592Z,944.0000
2022-12-09T01:38:43.753Z,944.0100
2022-12-09T01:38:54.912Z,944.0100
2022-12-09T01:39:06.391Z,944.0100
2022-12-09T01:39:17.851Z,944.0000
2022-12-09T01:39:29.035Z,944.0100
2022-12-09T01:39:40.087Z,944.0100
2022-12-09T01:39:51.382Z,944.0100
2022-12-09T01:40:02.708Z,944.0100
2022-12-09T01:40:14.227Z,944.0300
2022-12-09T01:40:25.254Z,944.0100
2022-12-09T01:40:36.377Z,944.0300
2022-12-09T01:40:47.664Z,944.0100
2022-12-09T01:40:58.769Z,944.0100
2022-12-09T01:41:10.078Z,944.0100
2022-12-09T01:41:21.247Z,944.0100
2022-12-09T01:41:32.269Z,944.0100
2022-12-09T01:41:43.451Z,944.0300
2022-12-09T01:41:54.881Z,944.0100
2022-12-09T01:42:06.398Z,944.0100
2022-12-09T01:42:17.502Z,944.0000
2022-12-09T01:42:28.511Z,944.0000
2022-12-09T01:42:39.826Z,944.0000
2022-12-09T01:42:50.984Z,944.0000
2022-12-09T01:43:02.183Z,944.0000
2022-12-09T01:43:13.324Z,944.0000
2022-12-09T01:43:24.489Z,944.0000
2022-12-09T01:43:35.749Z,944.0000
2022-12-09T01:43:47.154Z,943.9800
2022-12-09T01:43:58.210Z,944.0000
2022-12-09T01:44:09.419Z,944.0000
2022-12-09T01:44:20.782Z,943.9800
2022-12-09T01:44:31.897Z,943.9800
2022-12-09T01:44:43.026Z,943.9800
2022-12-09T01:44:54.291Z,943.9800
2022-12-09T01:45:05.423Z,944.0000
2022-12-09T01:45:16.842Z,943.9800
2022-12-09T01:45:28.134Z,944.0000
2022-12-09T01:45:39.577Z,944.0100
2022-12-09T01:45:50.865Z,944.0100
2022-12-09T01:46:02.547Z,944.0000
2022-12-09T01:46:14.110Z,944.0100
2022-12-09T01:46:25.551Z,944.0100
2022-12-09T01:46:36.831Z,944.0100
2022-12-09T01:46:48.399Z,944.0100
2022-12-09T01:47:00.190Z,944.0100
2022-12-09T01:47:11.465Z,944.0100
2022-12-09T01:47:22.919Z,944.0300
2022-12-09T01:47:34.397Z,944.0300
2022-12-09T01:47:45.972Z,944.0500
2022-12-09T01:47:57.163Z,944.0300
2022-12-09T01:48:08.387Z,944.0300
2022-12-09T01:48:19.482Z,944.0300
2022-12-09T01:48:31.056Z,944.0100
2022-12-09T01:48:42.295Z,944.0100
2022-12-09T01:48:53.478Z,944.0100
2022-12-09T01:49:04.498Z,944.0100
2022-12-09T01:49:16.045Z,944.0100
2022-12-09T01:49:27.148Z,944.0100
2022-12-09T01:49:38.552Z,944.0100
2022-12-09T01:49:49.973Z,944.0100
2022-12-09T01:50:01.499Z,944.0100
2022-12-09T01:50:12.731Z,944.0000
2022-12-09T01:50:24.132Z,944.0000
2022-12-09T01:50:35.572Z,944.0000
2022-12-09T01:50:46.884Z,944.0000
2022-12-09T01:50:58.354Z,944.0000
2022-12-09T01:51:09.457Z,944.0000
2022-12-09T01:51:20.477Z,944.0000
2022-12-09T01:51:31.682Z,943.9800
2022-12-09T01:51:42.984Z,943.9800
2022-12-09T01:51:54.556Z,944.0000
2022-12-09T01:52:05.935Z,944.0000
2022-12-09T01:52:17.471Z,943.9800
2022-12-09T01:52:28.929Z,944.0000
2022-12-09T01:52:40.284Z,944.0000
2022-12-09T01:52:51.684Z,943.9800
2022-12-09T01:53:02.776Z,943.9800
2022-12-09T01:53:14.117Z,943.9800
2022-12-09T01:53:25.218Z,943.9800
2022-12-09T01:53:36.319Z,943.9600
2022-12-09T01:53:47.688Z,943.9600
2022-12-09T01:53:58.884Z,943.9600
2022-12-09T01:54:09.933Z,943.9600
2022-12-09T01:54:21.011Z,943.9400
2022-12-09T01:54:32.161Z,943.9200
2022-12-09T01:54:43.347Z,943.9400
2022-12-09T01:54:54.740Z,943.9400
2022-12-09T01:55:06.120Z,943.9400
2022-12-09T01:55:17.523Z,943.9200
2022-12-09T01:55:28.863Z,943.9000
2022-12-09T01:55:39.984Z,943.9000
2022-12-09T01:55:51.116Z,943.8800
2022-12-09T01:56:02.190Z,943.8800
2022-12-09T01:56:13.263Z,943.8600
2022-12-09T01:56:24.320Z,943.8600
2022-12-09T01:56:35.400Z,943.8600
2022-12-09T01:56:46.562Z,943.8400
2022-12-09T01:56:57.957Z,943.8400
2022-12-09T01:57:09.562Z,943.8200
2022-12-09T01:57:20.857Z,943.8000
2022-12-09T01:57:32.302Z,943.8200
2022-12-09T01:57:43.840Z,943.8000
2022-12-09T01:57:55.472Z,943.8000
2022-12-09T01:58:06.991Z,943.8000
2022-12-09T01:58:18.307Z,943.7800
2022-12-09T01:58:29.777Z,943.7800
2022-12-09T01:58:41.093Z,943.7800
2022-12-09T01:58:52.141Z,943.7000
2022-12-09T01:59:03.603Z,943.7000
2022-12-09T01:59:15.151Z,943.7000
2022-12-09T01:59:26.607Z,943.7000
2022-12-09T01:59:37.842Z,943.6800
2022-12-09T01:59:49.202Z,943.6800
2022-12-09T02:00:00.487Z,943.6800
2022-12-09T02:00:11.977Z,943.6800
2022-12-09T02:00:23.552Z,943.6600
2022-12-09T02:00:34.728Z,943.6800
2022-12-09T02:00:45.793Z,943.6800
2022-12-09T02:00:57.054Z,943.6800
2022-12-09T02:01:08.510Z,943.6800
2022-12-09T02:01:20.018Z,943.6800
2022-12-09T02:01:31.493Z,943.6800
2022-12-09T02:01:43.188Z,943.6800
2022-12-09T02:01:54.876Z,943.7000
2022-12-09T02:02:06.259Z,943.7000
2022-12-09T02:02:17.792Z,943.7000
2022-12-09T02:02:29.648Z,943.7000
2022-12-09T02:02:41.225Z,943.7000
2022-12-09T02:02:53.402Z,943.7000
2022-12-09T02:03:04.871Z,943.6800
2022-12-09T02:03:16.459Z,943.6800
2022-12-09T02:03:27.899Z,943.6800
2022-12-09T02:03:39.151Z,943.7000
2022-12-09T02:03:50.693Z,943.7000
2022-12-09T02:04:02.308Z,943.7000
2022-12-09T02:04:13.677Z,943.6800
2022-12-09T02:04:24.900Z,943.6800
2022-12-09T02:04:36.161Z,943.6800
2022-12-09T02:04:47.322Z,943.6800
2022-12-09T02:04:58.604Z,943.6800
2022-12-09T02:05:09.942Z,943.6800
2022-12-09T02:05:21.225Z,943.6800
2022-12-09T02:05:33.248Z,943.6800
2022-12-09T02:05:44.563Z,943.6800
2022-12-09T02:05:55.629Z,943.6800
2022-12-09T02:06:06.820Z,943.6800
2022-12-09T02:06:18.048Z,943.6800
2022-12-09T02:06:29.388Z,943.6800
2022-12-09T02:06:40.468Z,943.6800
2022-12-09T02:06:51.549Z,943.6800
2022-12-09T02:07:02.658Z,943.6800
2022-12-09T02:07:13.930Z,943.6800
2022-12-09T02:07:25.191Z,943.6800
2022-12-09T02:07:36.269Z,943.6800
2022-12-09T02:07:47.712Z,943.6800
2022-12-09T02:07:59.270Z,943.6600
2022-12-09T02:08:10.650Z,943.6600
2022-12-09T02:08:21.895Z,943.6600
2022-12-09T02:08:33.350Z,943.6600
2022-12-09T02:08:44.841Z,943.6600
2022-12-09T02:08:56.437Z,943.6800
2022-12-09T02:09:07.606Z,943.6600
2022-12-09T02:09:19.339Z,943.6800
2022-12-09T02:09:30.630Z,943.6800
2022-12-09T02:09:42.060Z,943.6800
2022-12-09T02:09:53.622Z,943.6800
2022-12-09T02:10:05.355Z,943.6800
2022-12-09T02:10:17.495Z,943.7000
2022-12-09T02:10:28.780Z,943.6800
2022-12-09T02:10:40.278Z,943.7000
2022-12-09T02:10:51.483Z,943.6800
2022-12-09T02:11:02.541Z,943.6800
2022-12-09T02:11:13.642Z,943.6800
2022-12-09T02:11:24.935Z,943.6800
2022-12-09T02:11:36.345Z,943.6800
2022-12-09T02:11:47.556Z,943.6800
2022-12-09T02:11:59.054Z,943.6600
2022-12-09T02:12:10.584Z,943.6600
2022-12-09T02:12:21.800Z,943.6600
2022-12-09T02:12:33.186Z,943.6600
2022-12-09T02:12:44.511Z,943.6600